Great Falls, SC

4:05 AM EDT on August 29, 2014 (GMT -0400)
Johnson Land & Cattle Co | Change Station
CLOSE
Current Station
Personal Weather Station
Location: Richburg, SC
Elevation: 463 ft
Nearby Weather Stations

Elev 463 ft 34.71 °N, 80.96 °W | Updated 2 minutes ago

Clear
Clear
65.5 °F
Feels Like 65.5 °F
N
0.0
Wind Variable Wind from SSW
Gusts 0.0 mph

Today
High -- | Low -- °F
--% Chance of Precip.
Yesterday
High -- | Low -- °F
Precip. -- in
6:54 AM 7:53 PM
Waxing Crescent, 13% visible
Pressure 30.04 in
Visibility 10.0 miles
Clouds Clear
Dew Point 65 °F
Humidity 97%
Rainfall 0.00 in
Snow Depth Not available.
UV 0 out of 12
Pollen 9.60 out of 12
Ozone Good
Flu Activity Not available.
METAR KFDW 290755Z AUTO 20003KT 10SM CLR 22/16 A3004 RMK AO1

More Conditions Fewer Conditions

Pressure 30.04 in
Visibility 10.0 miles
Clouds Clear
Dew Point 65 °F
Humidity 97%
Rainfall 0.00 in
Snow Depth Not available.
UV 0 out of 12
Pollen 9.60 out of 12
Ozone Good
Flu Activity Not available.
METAR KFDW 290755Z AUTO 20003KT 10SM CLR 22/16 A3004 RMK AO1

More Conditions Fewer Conditions

10-Day Weather Forecast

Almanac

Astronomy

Aug. 29, 2014 Rise Set
Actual Time 6:54 AM EDT 7:53 PM EDT
Civil Twilight 6:28 AM EDT 8:19 PM EDT
Nautical Twilight 5:58 AM EDT 8:50 PM EDT
Astronomical Twilight 5:26 AM EDT 9:21 PM EDT
Moon 10:31 AM EDT 10:02 PM EDT
Length of Visible Light 13h 51m
Length of Day
12h 59m
Tomorrow will be 2m 2s shorter.
Waxing Crescent, 13% of the Moon is Illuminated
Today
Waxing Crescent
Sep 2
First Quarter
Sep 8
Full
Sep 15
Last Quarter
Sep 24
New

Today's Extremes

State Highs State Lows

Community

WunderPhotos

Upload Photos

1,748,197 photos uploaded!

Nearby

Air Quality

  Air Quality AQ Index Pollutant
Yesterday Good
OZONE
Current Good
OZONE
Friday Moderate
OZONE

Snow Depth

Station Depth Elevation
No new snow has been reported.

Earthquake Activity

City Distance Mag. Time & Date
No recent earthquake activity has been reported nearby.
Minimum magnitude displayed is 2.5.

Coastal Water Temperatures

Place Temperature
No Stations Reporting

Nearby Weather Stations